sensor_id;sensor_type;location;lat;lon;timestamp;P1;durP1;ratioP1;P2;durP2;ratioP2
65182;SDS011;51771;51.068;-1.780;2023-05-20T00:02:25;9.68;;;3.67;;
65182;SDS011;51771;51.068;-1.780;2023-05-20T00:04:50;9.90;;;4.05;;
65182;SDS011;51771;51.068;-1.780;2023-05-20T00:07:16;8.25;;;3.40;;
65182;SDS011;51771;51.068;-1.780;2023-05-20T00:09:41;12.10;;;4.40;;
65182;SDS011;51771;51.068;-1.780;2023-05-20T00:12:06;7.97;;;3.58;;
65182;SDS011;51771;51.068;-1.780;2023-05-20T00:14:32;8.25;;;3.85;;
65182;SDS011;51771;51.068;-1.780;2023-05-20T00:16:57;9.23;;;4.20;;
65182;SDS011;51771;51.068;-1.780;2023-05-20T00:19:22;8.53;;;3.50;;
65182;SDS011;51771;51.068;-1.780;2023-05-20T00:21:47;11.93;;;4.77;;
65182;SDS011;51771;51.068;-1.780;2023-05-20T00:24:13;10.40;;;4.43;;
65182;SDS011;51771;51.068;-1.780;2023-05-20T00:26:38;9.23;;;3.93;;
65182;SDS011;51771;51.068;-1.780;2023-05-20T00:29:03;9.60;;;3.58;;
65182;SDS011;51771;51.068;-1.780;2023-05-20T00:31:28;11.00;;;4.63;;
65182;SDS011;51771;51.068;-1.780;2023-05-20T00:33:53;8.40;;;4.00;;
65182;SDS011;51771;51.068;-1.780;2023-05-20T00:36:19;11.57;;;4.53;;
65182;SDS011;51771;51.068;-1.780;2023-05-20T00:38:44;8.43;;;3.90;;
65182;SDS011;51771;51.068;-1.780;2023-05-20T00:41:09;8.30;;;3.58;;
65182;SDS011;51771;51.068;-1.780;2023-05-20T00:43:35;12.87;;;4.27;;
65182;SDS011;51771;51.068;-1.780;2023-05-20T00:46:00;10.03;;;3.80;;
65182;SDS011;51771;51.068;-1.780;2023-05-20T00:48:26;10.02;;;3.88;;
65182;SDS011;51771;51.068;-1.780;2023-05-20T00:50:53;10.07;;;4.30;;
65182;SDS011;51771;51.068;-1.780;2023-05-20T00:53:18;8.73;;;3.83;;
65182;SDS011;51771;51.068;-1.780;2023-05-20T00:55:45;9.68;;;3.58;;
65182;SDS011;51771;51.068;-1.780;2023-05-20T00:58:10;11.23;;;3.95;;
65182;SDS011;51771;51.068;-1.780;2023-05-20T01:00:35;10.70;;;4.03;;
65182;SDS011;51771;51.068;-1.780;2023-05-20T01:03:01;9.13;;;4.35;;
65182;SDS011;51771;51.068;-1.780;2023-05-20T01:05:26;9.67;;;4.53;;
65182;SDS011;51771;51.068;-1.780;2023-05-20T01:07:51;8.38;;;3.75;;
65182;SDS011;51771;51.068;-1.780;2023-05-20T01:10:17;7.70;;;3.75;;
65182;SDS011;51771;51.068;-1.780;2023-05-20T01:12:42;7.28;;;3.70;;
65182;SDS011;51771;51.068;-1.780;2023-05-20T01:15:12;8.10;;;4.13;;
65182;SDS011;51771;51.068;-1.780;2023-05-20T01:17:40;9.18;;;3.92;;
65182;SDS011;51771;51.068;-1.780;2023-05-20T01:20:08;9.80;;;4.15;;
65182;SDS011;51771;51.068;-1.780;2023-05-20T01:22:38;8.35;;;3.80;;
65182;SDS011;51771;51.068;-1.780;2023-05-20T01:25:03;7.55;;;3.05;;
65182;SDS011;51771;51.068;-1.780;2023-05-20T01:27:29;9.07;;;4.05;;
65182;SDS011;51771;51.068;-1.780;2023-05-20T01:29:55;10.18;;;3.58;;
65182;SDS011;51771;51.068;-1.780;2023-05-20T01:34:46;8.03;;;4.03;;
65182;SDS011;51771;51.068;-1.780;2023-05-20T01:37:12;11.32;;;4.07;;
65182;SDS011;51771;51.068;-1.780;2023-05-20T01:39:38;8.18;;;3.72;;
65182;SDS011;51771;51.068;-1.780;2023-05-20T01:42:05;7.72;;;3.83;;
65182;SDS011;51771;51.068;-1.780;2023-05-20T01:44:31;13.27;;;4.28;;
65182;SDS011;51771;51.068;-1.780;2023-05-20T01:46:58;13.55;;;4.47;;
65182;SDS011;51771;51.068;-1.780;2023-05-20T01:49:23;8.35;;;3.80;;
65182;SDS011;51771;51.068;-1.780;2023-05-20T01:51:48;8.93;;;3.73;;
65182;SDS011;51771;51.068;-1.780;2023-05-20T01:54:13;9.20;;;3.88;;
65182;SDS011;51771;51.068;-1.780;2023-05-20T01:56:39;9.33;;;3.60;;
65182;SDS011;51771;51.068;-1.780;2023-05-20T01:59:04;7.93;;;4.30;;
65182;SDS011;51771;51.068;-1.780;2023-05-20T02:01:30;9.40;;;4.28;;
65182;SDS011;51771;51.068;-1.780;2023-05-20T02:03:55;8.37;;;4.20;;
65182;SDS011;51771;51.068;-1.780;2023-05-20T02:06:20;8.10;;;3.57;;
65182;SDS011;51771;51.068;-1.780;2023-05-20T02:08:45;7.72;;;3.83;;
65182;SDS011;51771;51.068;-1.780;2023-05-20T02:11:10;8.53;;;3.50;;
65182;SDS011;51771;51.068;-1.780;2023-05-20T02:13:36;6.27;;;3.40;;
65182;SDS011;51771;51.068;-1.780;2023-05-20T02:16:01;9.37;;;3.90;;
65182;SDS011;51771;51.068;-1.780;2023-05-20T02:18:26;9.10;;;3.50;;
65182;SDS011;51771;51.068;-1.780;2023-05-20T02:20:51;8.73;;;3.13;;
65182;SDS011;51771;51.068;-1.780;2023-05-20T02:23:17;8.23;;;4.47;;
65182;SDS011;51771;51.068;-1.780;2023-05-20T02:25:42;9.02;;;3.47;;
65182;SDS011;51771;51.068;-1.780;2023-05-20T02:28:07;10.32;;;4.03;;
65182;SDS011;51771;51.068;-1.780;2023-05-20T02:30:35;7.47;;;3.78;;
65182;SDS011;51771;51.068;-1.780;2023-05-20T02:33:00;7.95;;;3.97;;
65182;SDS011;51771;51.068;-1.780;2023-05-20T02:35:25;6.80;;;3.47;;
65182;SDS011;51771;51.068;-1.780;2023-05-20T02:37:50;8.80;;;4.00;;
65182;SDS011;51771;51.068;-1.780;2023-05-20T02:40:16;8.88;;;3.92;;
65182;SDS011;51771;51.068;-1.780;2023-05-20T02:42:41;10.00;;;3.67;;
65182;SDS011;51771;51.068;-1.780;2023-05-20T02:45:06;13.25;;;3.90;;
65182;SDS011;51771;51.068;-1.780;2023-05-20T02:47:32;7.45;;;3.13;;
65182;SDS011;51771;51.068;-1.780;2023-05-20T02:49:57;12.40;;;4.10;;
65182;SDS011;51771;51.068;-1.780;2023-05-20T02:52:22;8.50;;;3.58;;
65182;SDS011;51771;51.068;-1.780;2023-05-20T02:54:47;9.83;;;3.53;;
65182;SDS011;51771;51.068;-1.780;2023-05-20T02:57:13;6.80;;;3.25;;
65182;SDS011;51771;51.068;-1.780;2023-05-20T02:59:38;10.10;;;3.95;;
65182;SDS011;51771;51.068;-1.780;2023-05-20T03:02:03;7.80;;;3.75;;
65182;SDS011;51771;51.068;-1.780;2023-05-20T03:04:28;9.00;;;3.25;;
65182;SDS011;51771;51.068;-1.780;2023-05-20T03:06:55;8.27;;;3.88;;
65182;SDS011;51771;51.068;-1.780;2023-05-20T03:09:21;6.60;;;2.67;;
65182;SDS011;51771;51.068;-1.780;2023-05-20T03:11:47;7.00;;;2.92;;
65182;SDS011;51771;51.068;-1.780;2023-05-20T03:14:12;6.37;;;3.37;;
65182;SDS011;51771;51.068;-1.780;2023-05-20T03:16:38;6.63;;;3.27;;
65182;SDS011;51771;51.068;-1.780;2023-05-20T03:19:04;8.50;;;3.50;;
65182;SDS011;51771;51.068;-1.780;2023-05-20T03:21:29;6.70;;;3.00;;
65182;SDS011;51771;51.068;-1.780;2023-05-20T03:23:54;7.90;;;3.30;;
65182;SDS011;51771;51.068;-1.780;2023-05-20T03:26:19;6.63;;;3.33;;
65182;SDS011;51771;51.068;-1.780;2023-05-20T03:28:45;9.63;;;3.72;;
65182;SDS011;51771;51.068;-1.780;2023-05-20T03:31:10;12.23;;;3.90;;
65182;SDS011;51771;51.068;-1.780;2023-05-20T03:33:36;8.17;;;3.17;;
65182;SDS011;51771;51.068;-1.780;2023-05-20T03:36:01;11.20;;;4.90;;
65182;SDS011;51771;51.068;-1.780;2023-05-20T03:38:26;8.33;;;3.43;;
65182;SDS011;51771;51.068;-1.780;2023-05-20T03:40:51;6.27;;;3.47;;
65182;SDS011;51771;51.068;-1.780;2023-05-20T03:43:17;7.37;;;3.50;;
65182;SDS011;51771;51.068;-1.780;2023-05-20T03:45:51;9.63;;;3.20;;
65182;SDS011;51771;51.068;-1.780;2023-05-20T03:48:20;7.13;;;3.45;;
65182;SDS011;51771;51.068;-1.780;2023-05-20T03:50:45;10.70;;;2.90;;
65182;SDS011;51771;51.068;-1.780;2023-05-20T03:53:10;6.20;;;3.10;;
65182;SDS011;51771;51.068;-1.780;2023-05-20T03:55:36;6.40;;;2.93;;
65182;SDS011;51771;51.068;-1.780;2023-05-20T03:58:01;10.50;;;4.27;;
65182;SDS011;51771;51.068;-1.780;2023-05-20T04:00:26;9.40;;;2.83;;
65182;SDS011;51771;51.068;-1.780;2023-05-20T04:02:51;9.70;;;3.20;;
65182;SDS011;51771;51.068;-1.780;2023-05-20T04:05:17;6.82;;;3.22;;
65182;SDS011;51771;51.068;-1.780;2023-05-20T04:07:42;6.70;;;3.10;;
65182;SDS011;51771;51.068;-1.780;2023-05-20T04:10:07;11.50;;;3.83;;
65182;SDS011;51771;51.068;-1.780;2023-05-20T04:12:33;8.02;;;3.25;;
65182;SDS011;51771;51.068;-1.780;2023-05-20T04:15:00;7.65;;;3.15;;
65182;SDS011;51771;51.068;-1.780;2023-05-20T04:17:26;11.82;;;2.92;;
65182;SDS011;51771;51.068;-1.780;2023-05-20T04:19:52;7.00;;;3.58;;
65182;SDS011;51771;51.068;-1.780;2023-05-20T04:22:17;4.72;;;2.38;;
65182;SDS011;51771;51.068;-1.780;2023-05-20T04:24:42;6.50;;;2.60;;
65182;SDS011;51771;51.068;-1.780;2023-05-20T04:27:08;6.33;;;3.23;;
65182;SDS011;51771;51.068;-1.780;2023-05-20T04:29:33;7.60;;;2.22;;
65182;SDS011;51771;51.068;-1.780;2023-05-20T04:31:58;8.60;;;2.72;;
65182;SDS011;51771;51.068;-1.780;2023-05-20T04:34:27;9.73;;;3.42;;
65182;SDS011;51771;51.068;-1.780;2023-05-20T04:36:53;6.47;;;2.38;;
65182;SDS011;51771;51.068;-1.780;2023-05-20T04:39:18;6.73;;;3.30;;
65182;SDS011;51771;51.068;-1.780;2023-05-20T04:41:44;10.82;;;4.13;;
65182;SDS011;51771;51.068;-1.780;2023-05-20T04:44:12;10.10;;;3.47;;
65182;SDS011;51771;51.068;-1.780;2023-05-20T04:46:37;6.88;;;3.33;;
65182;SDS011;51771;51.068;-1.780;2023-05-20T04:49:03;13.50;;;3.42;;
65182;SDS011;51771;51.068;-1.780;2023-05-20T04:51:29;9.35;;;4.20;;
65182;SDS011;51771;51.068;-1.780;2023-05-20T04:53:54;7.80;;;3.38;;
65182;SDS011;51771;51.068;-1.780;2023-05-20T04:56:19;10.07;;;4.05;;
65182;SDS011;51771;51.068;-1.780;2023-05-20T04:58:45;8.77;;;3.90;;
65182;SDS011;51771;51.068;-1.780;2023-05-20T05:01:10;7.30;;;2.97;;
65182;SDS011;51771;51.068;-1.780;2023-05-20T05:03:35;9.53;;;4.20;;
65182;SDS011;51771;51.068;-1.780;2023-05-20T05:06:00;6.95;;;2.50;;
65182;SDS011;51771;51.068;-1.780;2023-05-20T05:08:26;6.60;;;3.40;;
65182;SDS011;51771;51.068;-1.780;2023-05-20T05:10:51;10.40;;;3.30;;
65182;SDS011;51771;51.068;-1.780;2023-05-20T05:13:17;6.78;;;3.50;;
65182;SDS011;51771;51.068;-1.780;2023-05-20T05:15:42;6.65;;;3.15;;
65182;SDS011;51771;51.068;-1.780;2023-05-20T05:18:07;9.93;;;3.67;;
65182;SDS011;51771;51.068;-1.780;2023-05-20T05:20:32;6.47;;;3.23;;
65182;SDS011;51771;51.068;-1.780;2023-05-20T05:22:57;7.10;;;3.00;;
65182;SDS011;51771;51.068;-1.780;2023-05-20T05:25:23;8.07;;;2.90;;
65182;SDS011;51771;51.068;-1.780;2023-05-20T05:27:48;6.00;;;3.40;;
65182;SDS011;51771;51.068;-1.780;2023-05-20T05:30:14;6.28;;;3.00;;
65182;SDS011;51771;51.068;-1.780;2023-05-20T05:32:39;6.82;;;3.17;;
65182;SDS011;51771;51.068;-1.780;2023-05-20T05:35:05;10.07;;;3.03;;
65182;SDS011;51771;51.068;-1.780;2023-05-20T05:37:30;9.95;;;3.75;;
65182;SDS011;51771;51.068;-1.780;2023-05-20T05:39:55;6.20;;;3.10;;
65182;SDS011;51771;51.068;-1.780;2023-05-20T05:42:20;9.00;;;3.33;;
65182;SDS011;51771;51.068;-1.780;2023-05-20T05:44:46;6.57;;;3.33;;
65182;SDS011;51771;51.068;-1.780;2023-05-20T05:47:12;7.95;;;3.38;;
65182;SDS011;51771;51.068;-1.780;2023-05-20T05:49:37;10.47;;;3.70;;
65182;SDS011;51771;51.068;-1.780;2023-05-20T05:52:02;7.03;;;3.17;;
65182;SDS011;51771;51.068;-1.780;2023-05-20T05:54:27;8.30;;;3.10;;
65182;SDS011;51771;51.068;-1.780;2023-05-20T05:56:53;9.55;;;3.33;;
65182;SDS011;51771;51.068;-1.780;2023-05-20T05:59:20;6.68;;;3.25;;
65182;SDS011;51771;51.068;-1.780;2023-05-20T06:01:45;7.32;;;3.35;;
65182;SDS011;51771;51.068;-1.780;2023-05-20T06:04:11;8.40;;;3.78;;
65182;SDS011;51771;51.068;-1.780;2023-05-20T06:06:36;8.00;;;3.77;;
65182;SDS011;51771;51.068;-1.780;2023-05-20T06:09:01;8.52;;;3.72;;
65182;SDS011;51771;51.068;-1.780;2023-05-20T06:11:27;8.00;;;3.75;;
65182;SDS011;51771;51.068;-1.780;2023-05-20T06:13:52;8.18;;;3.58;;
65182;SDS011;51771;51.068;-1.780;2023-05-20T06:16:17;6.60;;;3.30;;
65182;SDS011;51771;51.068;-1.780;2023-05-20T06:18:44;7.95;;;3.03;;
65182;SDS011;51771;51.068;-1.780;2023-05-20T06:21:09;6.18;;;2.95;;
65182;SDS011;51771;51.068;-1.780;2023-05-20T06:23:35;6.67;;;3.10;;
65182;SDS011;51771;51.068;-1.780;2023-05-20T06:26:00;6.32;;;3.05;;
65182;SDS011;51771;51.068;-1.780;2023-05-20T06:28:26;6.13;;;3.13;;
65182;SDS011;51771;51.068;-1.780;2023-05-20T06:30:52;6.60;;;2.78;;
65182;SDS011;51771;51.068;-1.780;2023-05-20T06:33:18;6.40;;;2.92;;
65182;SDS011;51771;51.068;-1.780;2023-05-20T06:35:44;6.88;;;2.60;;
65182;SDS011;51771;51.068;-1.780;2023-05-20T06:38:09;6.57;;;2.58;;
65182;SDS011;51771;51.068;-1.780;2023-05-20T06:40:34;8.40;;;2.67;;
65182;SDS011;51771;51.068;-1.780;2023-05-20T06:43:00;4.93;;;2.50;;
65182;SDS011;51771;51.068;-1.780;2023-05-20T06:45:25;5.57;;;2.33;;
65182;SDS011;51771;51.068;-1.780;2023-05-20T06:47:50;6.10;;;2.65;;
65182;SDS011;51771;51.068;-1.780;2023-05-20T06:50:18;5.80;;;2.70;;
65182;SDS011;51771;51.068;-1.780;2023-05-20T06:52:43;6.17;;;2.33;;
65182;SDS011;51771;51.068;-1.780;2023-05-20T06:55:08;6.47;;;2.33;;
65182;SDS011;51771;51.068;-1.780;2023-05-20T06:57:33;6.47;;;2.58;;
65182;SDS011;51771;51.068;-1.780;2023-05-20T06:59:59;5.65;;;2.15;;
65182;SDS011;51771;51.068;-1.780;2023-05-20T07:02:24;5.80;;;2.60;;
65182;SDS011;51771;51.068;-1.780;2023-05-20T07:04:50;5.00;;;2.40;;
65182;SDS011;51771;51.068;-1.780;2023-05-20T07:07:15;8.13;;;2.93;;
65182;SDS011;51771;51.068;-1.780;2023-05-20T07:09:41;6.97;;;2.75;;
65182;SDS011;51771;51.068;-1.780;2023-05-20T07:12:07;6.40;;;2.67;;
65182;SDS011;51771;51.068;-1.780;2023-05-20T07:14:32;6.32;;;2.67;;
65182;SDS011;51771;51.068;-1.780;2023-05-20T07:16:57;5.50;;;2.33;;
65182;SDS011;51771;51.068;-1.780;2023-05-20T07:19:23;8.07;;;2.90;;
65182;SDS011;51771;51.068;-1.780;2023-05-20T07:21:48;6.73;;;2.57;;
65182;SDS011;51771;51.068;-1.780;2023-05-20T07:24:14;6.15;;;2.60;;
65182;SDS011;51771;51.068;-1.780;2023-05-20T07:26:39;5.45;;;2.13;;
65182;SDS011;51771;51.068;-1.780;2023-05-20T07:29:05;6.10;;;2.78;;
65182;SDS011;51771;51.068;-1.780;2023-05-20T07:31:30;6.68;;;2.40;;
65182;SDS011;51771;51.068;-1.780;2023-05-20T07:33:55;5.63;;;2.33;;
65182;SDS011;51771;51.068;-1.780;2023-05-20T07:36:21;5.38;;;2.72;;
65182;SDS011;51771;51.068;-1.780;2023-05-20T07:38:46;5.40;;;2.67;;
65182;SDS011;51771;51.068;-1.780;2023-05-20T07:41:11;5.80;;;2.90;;
65182;SDS011;51771;51.068;-1.780;2023-05-20T07:43:36;6.40;;;2.70;;
65182;SDS011;51771;51.068;-1.780;2023-05-20T07:46:02;7.57;;;2.33;;
65182;SDS011;51771;51.068;-1.780;2023-05-20T07:48:27;8.07;;;2.73;;
65182;SDS011;51771;51.068;-1.780;2023-05-20T07:50:52;7.53;;;2.93;;
65182;SDS011;51771;51.068;-1.780;2023-05-20T07:53:17;7.13;;;3.00;;
65182;SDS011;51771;51.068;-1.780;2023-05-20T07:55:43;5.78;;;2.20;;
65182;SDS011;51771;51.068;-1.780;2023-05-20T07:58:08;6.05;;;3.03;;
65182;SDS011;51771;51.068;-1.780;2023-05-20T08:00:33;6.23;;;2.77;;
65182;SDS011;51771;51.068;-1.780;2023-05-20T08:02:58;5.60;;;2.60;;
65182;SDS011;51771;51.068;-1.780;2023-05-20T08:05:24;5.15;;;2.28;;
65182;SDS011;51771;51.068;-1.780;2023-05-20T08:07:49;6.97;;;2.85;;
65182;SDS011;51771;51.068;-1.780;2023-05-20T08:10:14;6.77;;;3.00;;
65182;SDS011;51771;51.068;-1.780;2023-05-20T08:12:40;6.07;;;2.65;;
65182;SDS011;51771;51.068;-1.780;2023-05-20T08:15:05;6.50;;;2.70;;
65182;SDS011;51771;51.068;-1.780;2023-05-20T08:17:31;7.50;;;3.17;;
65182;SDS011;51771;51.068;-1.780;2023-05-20T08:19:56;6.93;;;2.90;;
65182;SDS011;51771;51.068;-1.780;2023-05-20T08:22:22;7.20;;;2.87;;
65182;SDS011;51771;51.068;-1.780;2023-05-20T08:24:47;7.88;;;2.83;;
65182;SDS011;51771;51.068;-1.780;2023-05-20T08:27:12;5.80;;;2.92;;
65182;SDS011;51771;51.068;-1.780;2023-05-20T08:29:37;6.03;;;2.80;;
65182;SDS011;51771;51.068;-1.780;2023-05-20T08:32:03;5.53;;;2.57;;
65182;SDS011;51771;51.068;-1.780;2023-05-20T08:34:28;10.57;;;2.88;;
65182;SDS011;51771;51.068;-1.780;2023-05-20T08:36:53;6.93;;;2.50;;
65182;SDS011;51771;51.068;-1.780;2023-05-20T08:39:18;6.87;;;2.47;;
65182;SDS011;51771;51.068;-1.780;2023-05-20T08:41:44;7.73;;;2.83;;
65182;SDS011;51771;51.068;-1.780;2023-05-20T08:44:10;6.45;;;2.83;;
65182;SDS011;51771;51.068;-1.780;2023-05-20T08:46:36;5.85;;;2.50;;
65182;SDS011;51771;51.068;-1.780;2023-05-20T08:49:02;6.07;;;2.40;;
65182;SDS011;51771;51.068;-1.780;2023-05-20T08:51:27;5.67;;;2.73;;
65182;SDS011;51771;51.068;-1.780;2023-05-20T08:53:53;7.45;;;3.38;;
65182;SDS011;51771;51.068;-1.780;2023-05-20T08:56:18;5.20;;;2.60;;
65182;SDS011;51771;51.068;-1.780;2023-05-20T08:58:44;7.28;;;2.90;;
65182;SDS011;51771;51.068;-1.780;2023-05-20T09:01:10;6.63;;;3.10;;
65182;SDS011;51771;51.068;-1.780;2023-05-20T09:03:36;6.57;;;2.67;;
65182;SDS011;51771;51.068;-1.780;2023-05-20T09:06:08;5.13;;;2.22;;
65182;SDS011;51771;51.068;-1.780;2023-05-20T09:08:33;5.95;;;2.67;;
65182;SDS011;51771;51.068;-1.780;2023-05-20T09:10:59;5.13;;;2.30;;
65182;SDS011;51771;51.068;-1.780;2023-05-20T09:13:25;6.18;;;2.10;;
65182;SDS011;51771;51.068;-1.780;2023-05-20T09:15:51;6.70;;;2.28;;
65182;SDS011;51771;51.068;-1.780;2023-05-20T09:18:16;4.83;;;2.03;;
65182;SDS011;51771;51.068;-1.780;2023-05-20T09:20:41;5.40;;;2.47;;
65182;SDS011;51771;51.068;-1.780;2023-05-20T09:23:07;6.07;;;2.43;;
65182;SDS011;51771;51.068;-1.780;2023-05-20T09:25:34;8.02;;;2.33;;
65182;SDS011;51771;51.068;-1.780;2023-05-20T09:27:59;6.43;;;2.45;;
65182;SDS011;51771;51.068;-1.780;2023-05-20T09:30:25;5.72;;;2.58;;
65182;SDS011;51771;51.068;-1.780;2023-05-20T09:32:57;7.07;;;2.38;;
65182;SDS011;51771;51.068;-1.780;2023-05-20T09:35:23;5.70;;;2.42;;
65182;SDS011;51771;51.068;-1.780;2023-05-20T09:37:52;5.22;;;2.47;;
65182;SDS011;51771;51.068;-1.780;2023-05-20T09:40:24;5.72;;;2.38;;
65182;SDS011;51771;51.068;-1.780;2023-05-20T09:45:19;6.63;;;2.30;;
65182;SDS011;51771;51.068;-1.780;2023-05-20T09:47:46;6.03;;;2.08;;
65182;SDS011;51771;51.068;-1.780;2023-05-20T09:50:11;4.95;;;2.53;;
65182;SDS011;51771;51.068;-1.780;2023-05-20T09:52:37;5.85;;;2.30;;
65182;SDS011;51771;51.068;-1.780;2023-05-20T09:55:06;7.43;;;2.40;;
65182;SDS011;51771;51.068;-1.780;2023-05-20T09:57:33;6.13;;;1.95;;
65182;SDS011;51771;51.068;-1.780;2023-05-20T09:59:58;5.78;;;2.28;;
65182;SDS011;51771;51.068;-1.780;2023-05-20T10:02:24;6.70;;;2.55;;
65182;SDS011;51771;51.068;-1.780;2023-05-20T10:04:50;5.22;;;2.20;;
65182;SDS011;51771;51.068;-1.780;2023-05-20T10:17:45;5.55;;;1.73;;
65182;SDS011;51771;51.068;-1.780;2023-05-20T10:20:14;7.75;;;2.20;;
65182;SDS011;51771;51.068;-1.780;2023-05-20T10:22:39;4.95;;;2.13;;
65182;SDS011;51771;51.068;-1.780;2023-05-20T10:25:06;8.93;;;2.53;;
65182;SDS011;51771;51.068;-1.780;2023-05-20T10:27:41;5.00;;;2.08;;
65182;SDS011;51771;51.068;-1.780;2023-05-20T10:30:14;5.18;;;2.22;;
65182;SDS011;51771;51.068;-1.780;2023-05-20T10:32:47;6.50;;;2.65;;
65182;SDS011;51771;51.068;-1.780;2023-05-20T10:35:12;6.15;;;2.17;;
65182;SDS011;51771;51.068;-1.780;2023-05-20T10:37:41;6.83;;;2.60;;
65182;SDS011;51771;51.068;-1.780;2023-05-20T10:40:07;5.88;;;2.40;;
65182;SDS011;51771;51.068;-1.780;2023-05-20T10:42:34;5.43;;;2.15;;
65182;SDS011;51771;51.068;-1.780;2023-05-20T10:45:00;6.33;;;2.77;;
65182;SDS011;51771;51.068;-1.780;2023-05-20T10:47:25;6.83;;;2.27;;
65182;SDS011;51771;51.068;-1.780;2023-05-20T10:49:50;5.05;;;2.47;;
65182;SDS011;51771;51.068;-1.780;2023-05-20T10:52:16;5.95;;;2.50;;
65182;SDS011;51771;51.068;-1.780;2023-05-20T10:54:57;4.72;;;2.60;;
65182;SDS011;51771;51.068;-1.780;2023-05-20T10:57:24;4.57;;;2.05;;
65182;SDS011;51771;51.068;-1.780;2023-05-20T10:59:49;6.43;;;2.33;;
65182;SDS011;51771;51.068;-1.780;2023-05-20T11:02:16;7.25;;;2.58;;
65182;SDS011;51771;51.068;-1.780;2023-05-20T11:04:41;4.78;;;2.25;;
65182;SDS011;51771;51.068;-1.780;2023-05-20T11:07:07;5.82;;;2.45;;
65182;SDS011;51771;51.068;-1.780;2023-05-20T11:09:32;6.23;;;2.70;;
65182;SDS011;51771;51.068;-1.780;2023-05-20T11:11:58;5.30;;;2.40;;
65182;SDS011;51771;51.068;-1.780;2023-05-20T11:14:23;5.97;;;2.05;;
65182;SDS011;51771;51.068;-1.780;2023-05-20T11:16:52;6.35;;;2.08;;
65182;SDS011;51771;51.068;-1.780;2023-05-20T11:19:18;6.95;;;2.95;;
65182;SDS011;51771;51.068;-1.780;2023-05-20T11:21:46;8.93;;;2.97;;
65182;SDS011;51771;51.068;-1.780;2023-05-20T11:24:12;5.68;;;2.10;;
65182;SDS011;51771;51.068;-1.780;2023-05-20T11:26:37;6.53;;;2.33;;
65182;SDS011;51771;51.068;-1.780;2023-05-20T11:29:02;6.45;;;2.30;;
65182;SDS011;51771;51.068;-1.780;2023-05-20T11:31:28;5.60;;;2.40;;
65182;SDS011;51771;51.068;-1.780;2023-05-20T11:33:54;6.70;;;2.45;;
65182;SDS011;51771;51.068;-1.780;2023-05-20T11:36:19;5.35;;;2.38;;
65182;SDS011;51771;51.068;-1.780;2023-05-20T11:38:46;6.20;;;1.95;;
65182;SDS011;51771;51.068;-1.780;2023-05-20T11:41:11;5.88;;;2.65;;
65182;SDS011;51771;51.068;-1.780;2023-05-20T11:43:37;8.68;;;2.65;;
65182;SDS011;51771;51.068;-1.780;2023-05-20T11:46:03;5.93;;;2.35;;
65182;SDS011;51771;51.068;-1.780;2023-05-20T11:48:28;5.82;;;2.25;;
65182;SDS011;51771;51.068;-1.780;2023-05-20T11:50:54;5.80;;;2.00;;
65182;SDS011;51771;51.068;-1.780;2023-05-20T11:53:20;6.63;;;2.17;;
65182;SDS011;51771;51.068;-1.780;2023-05-20T11:55:50;4.60;;;2.00;;
65182;SDS011;51771;51.068;-1.780;2023-05-20T11:58:17;4.07;;;1.80;;
65182;SDS011;51771;51.068;-1.780;2023-05-20T12:00:43;6.38;;;2.00;;
65182;SDS011;51771;51.068;-1.780;2023-05-20T12:03:08;5.93;;;2.70;;
65182;SDS011;51771;51.068;-1.780;2023-05-20T12:05:33;4.82;;;1.90;;
65182;SDS011;51771;51.068;-1.780;2023-05-20T12:07:58;4.17;;;1.97;;
65182;SDS011;51771;51.068;-1.780;2023-05-20T12:10:24;4.67;;;1.87;;
65182;SDS011;51771;51.068;-1.780;2023-05-20T12:12:49;5.60;;;1.80;;
65182;SDS011;51771;51.068;-1.780;2023-05-20T12:15:14;4.43;;;1.63;;
65182;SDS011;51771;51.068;-1.780;2023-05-20T12:17:44;6.95;;;2.35;;
65182;SDS011;51771;51.068;-1.780;2023-05-20T12:20:10;4.13;;;1.80;;
65182;SDS011;51771;51.068;-1.780;2023-05-20T12:22:35;5.03;;;2.05;;
65182;SDS011;51771;51.068;-1.780;2023-05-20T12:25:00;6.13;;;2.33;;
65182;SDS011;51771;51.068;-1.780;2023-05-20T12:27:26;4.90;;;1.93;;
65182;SDS011;51771;51.068;-1.780;2023-05-20T12:29:51;4.50;;;1.63;;
65182;SDS011;51771;51.068;-1.780;2023-05-20T12:32:16;6.53;;;1.90;;
65182;SDS011;51771;51.068;-1.780;2023-05-20T12:34:41;5.28;;;2.30;;
65182;SDS011;51771;51.068;-1.780;2023-05-20T12:37:06;5.90;;;1.83;;
65182;SDS011;51771;51.068;-1.780;2023-05-20T12:39:32;4.10;;;1.30;;
65182;SDS011;51771;51.068;-1.780;2023-05-20T12:41:57;8.73;;;2.20;;
65182;SDS011;51771;51.068;-1.780;2023-05-20T12:44:22;5.22;;;1.80;;
65182;SDS011;51771;51.068;-1.780;2023-05-20T12:46:47;5.40;;;1.60;;
65182;SDS011;51771;51.068;-1.780;2023-05-20T12:49:12;5.00;;;1.70;;
65182;SDS011;51771;51.068;-1.780;2023-05-20T12:51:38;5.13;;;1.98;;
65182;SDS011;51771;51.068;-1.780;2023-05-20T12:54:03;4.63;;;1.70;;
65182;SDS011;51771;51.068;-1.780;2023-05-20T12:56:28;5.05;;;1.80;;
65182;SDS011;51771;51.068;-1.780;2023-05-20T12:58:54;5.90;;;1.70;;
65182;SDS011;51771;51.068;-1.780;2023-05-20T13:01:19;8.13;;;2.17;;
65182;SDS011;51771;51.068;-1.780;2023-05-20T13:03:44;5.50;;;1.73;;
65182;SDS011;51771;51.068;-1.780;2023-05-20T13:06:11;4.72;;;1.50;;
65182;SDS011;51771;51.068;-1.780;2023-05-20T13:08:36;6.03;;;2.00;;
65182;SDS011;51771;51.068;-1.780;2023-05-20T13:11:01;6.50;;;2.20;;
65182;SDS011;51771;51.068;-1.780;2023-05-20T13:13:26;6.45;;;2.25;;
65182;SDS011;51771;51.068;-1.780;2023-05-20T13:15:52;4.47;;;1.83;;
65182;SDS011;51771;51.068;-1.780;2023-05-20T13:18:17;4.50;;;2.25;;
65182;SDS011;51771;51.068;-1.780;2023-05-20T13:20:43;5.15;;;1.83;;
65182;SDS011;51771;51.068;-1.780;2023-05-20T13:23:08;4.07;;;1.67;;
65182;SDS011;51771;51.068;-1.780;2023-05-20T13:25:33;4.73;;;1.80;;
65182;SDS011;51771;51.068;-1.780;2023-05-20T13:27:59;6.55;;;1.77;;
65182;SDS011;51771;51.068;-1.780;2023-05-20T13:30:24;3.97;;;1.83;;
65182;SDS011;51771;51.068;-1.780;2023-05-20T13:32:50;5.35;;;1.30;;
65182;SDS011;51771;51.068;-1.780;2023-05-20T13:35:15;5.18;;;1.60;;
65182;SDS011;51771;51.068;-1.780;2023-05-20T13:37:40;4.05;;;1.52;;
65182;SDS011;51771;51.068;-1.780;2023-05-20T13:40:06;5.23;;;1.93;;
65182;SDS011;51771;51.068;-1.780;2023-05-20T13:42:31;4.72;;;1.50;;
65182;SDS011;51771;51.068;-1.780;2023-05-20T13:44:56;5.40;;;2.03;;
65182;SDS011;51771;51.068;-1.780;2023-05-20T13:47:21;7.40;;;2.37;;
65182;SDS011;51771;51.068;-1.780;2023-05-20T13:49:47;6.33;;;1.50;;
65182;SDS011;51771;51.068;-1.780;2023-05-20T13:52:12;4.60;;;1.30;;
65182;SDS011;51771;51.068;-1.780;2023-05-20T13:54:37;3.25;;;1.20;;
65182;SDS011;51771;51.068;-1.780;2023-05-20T13:57:03;3.88;;;1.45;;
65182;SDS011;51771;51.068;-1.780;2023-05-20T13:59:31;3.95;;;1.30;;
65182;SDS011;51771;51.068;-1.780;2023-05-20T14:01:56;3.15;;;1.40;;
65182;SDS011;51771;51.068;-1.780;2023-05-20T14:04:23;6.10;;;1.97;;
65182;SDS011;51771;51.068;-1.780;2023-05-20T14:06:49;3.50;;;1.42;;
65182;SDS011;51771;51.068;-1.780;2023-05-20T14:09:14;3.87;;;1.30;;
65182;SDS011;51771;51.068;-1.780;2023-05-20T14:11:39;3.83;;;1.90;;
65182;SDS011;51771;51.068;-1.780;2023-05-20T14:14:04;3.50;;;1.33;;
65182;SDS011;51771;51.068;-1.780;2023-05-20T14:16:30;3.75;;;1.40;;
65182;SDS011;51771;51.068;-1.780;2023-05-20T14:18:55;5.30;;;1.42;;
65182;SDS011;51771;51.068;-1.780;2023-05-20T14:21:20;3.63;;;1.48;;
65182;SDS011;51771;51.068;-1.780;2023-05-20T14:23:46;4.05;;;1.55;;
65182;SDS011;51771;51.068;-1.780;2023-05-20T14:26:11;3.75;;;1.42;;
65182;SDS011;51771;51.068;-1.780;2023-05-20T14:28:37;4.93;;;1.30;;
65182;SDS011;51771;51.068;-1.780;2023-05-20T14:31:03;3.80;;;1.50;;
65182;SDS011;51771;51.068;-1.780;2023-05-20T14:33:28;4.18;;;1.45;;
65182;SDS011;51771;51.068;-1.780;2023-05-20T14:35:53;4.87;;;2.40;;
65182;SDS011;51771;51.068;-1.780;2023-05-20T14:38:18;5.25;;;1.90;;
65182;SDS011;51771;51.068;-1.780;2023-05-20T14:40:45;6.30;;;1.70;;